createdAt,value
2022-11-10T00:01:56.171Z,5.36
2022-11-10T00:04:42.761Z,5.37
2022-11-10T00:07:29.368Z,5.39
2022-11-10T00:10:16.077Z,5.40
2022-11-10T00:13:02.960Z,5.41
2022-11-10T00:16:08.233Z,5.42
2022-11-10T00:18:54.537Z,5.44
2022-11-10T00:21:41.234Z,5.44
2022-11-10T00:24:28.865Z,5.43
2022-11-10T00:27:15.478Z,5.41
2022-11-10T00:30:03.005Z,5.38
2022-11-10T00:32:49.613Z,5.34
2022-11-10T00:35:35.911Z,5.28
2022-11-10T00:38:22.625Z,5.23
2022-11-10T00:41:09.323Z,5.20
2022-11-10T00:43:55.724Z,5.18
2022-11-10T00:46:42.390Z,5.15
2022-11-10T00:49:28.953Z,5.14
2022-11-10T00:52:15.443Z,5.13
2022-11-10T00:55:02.252Z,5.11
2022-11-10T00:57:49.269Z,5.09
2022-11-10T01:00:35.672Z,5.04
2022-11-10T01:03:23.147Z,4.99
2022-11-10T01:06:14.864Z,4.96
2022-11-10T01:09:01.327Z,4.95
2022-11-10T01:11:47.525Z,4.94
2022-11-10T01:14:33.824Z,4.90
2022-11-10T01:17:20.386Z,4.88
2022-11-10T01:20:08.560Z,4.88
2022-11-10T01:22:55.077Z,4.87
2022-11-10T01:25:41.377Z,4.86
2022-11-10T01:28:29.118Z,4.82
2022-11-10T01:31:17.056Z,4.82
2022-11-10T01:34:03.959Z,4.81
2022-11-10T01:36:50.333Z,4.81
2022-11-10T01:39:36.811Z,4.79
2022-11-10T01:42:27.104Z,4.77
2022-11-10T01:45:23.220Z,4.73
2022-11-10T01:48:12.866Z,4.70
2022-11-10T01:51:01.728Z,4.68
2022-11-10T01:53:54.722Z,4.68
2022-11-10T01:56:44.257Z,4.68
2022-11-10T01:59:32.958Z,4.66
2022-11-10T02:02:28.625Z,4.65
2022-11-10T02:05:15.647Z,4.66
2022-11-10T02:08:02.619Z,4.66
2022-11-10T02:10:49.068Z,4.66
2022-11-10T02:13:35.775Z,4.67
2022-11-10T02:16:23.019Z,4.68
2022-11-10T02:19:18.670Z,4.69
2022-11-10T02:22:04.919Z,4.69
2022-11-10T02:24:51.605Z,4.70
2022-11-10T02:27:38.054Z,4.71
2022-11-10T02:30:27.678Z,4.72
2022-11-10T02:33:17.806Z,4.73
2022-11-10T02:36:04.825Z,4.75
2022-11-10T02:38:51.213Z,4.78
2022-11-10T02:41:38.135Z,4.80
2022-11-10T02:44:24.530Z,4.82
2022-11-10T02:47:11.135Z,4.81
2022-11-10T02:49:57.537Z,4.81
2022-11-10T02:52:44.166Z,4.80
2022-11-10T02:55:30.543Z,4.80
2022-11-10T02:58:17.046Z,4.80
2022-11-10T03:01:05.747Z,4.80
2022-11-10T03:03:52.206Z,4.80
2022-11-10T03:06:38.672Z,4.80
2022-11-10T03:09:25.320Z,4.79
2022-11-10T03:12:11.773Z,4.80
2022-11-10T03:14:58.126Z,4.80
2022-11-10T03:17:45.029Z,4.79
2022-11-10T03:20:31.622Z,4.78
2022-11-10T03:23:18.444Z,4.79
2022-11-10T03:26:05.333Z,4.79
2022-11-10T03:28:52.076Z,4.78
2022-11-10T03:31:38.886Z,4.77
2022-11-10T03:34:29.425Z,4.73
2022-11-10T03:37:18.032Z,4.69
2022-11-10T03:40:04.865Z,4.67
2022-11-10T03:42:51.452Z,4.67
2022-11-10T03:45:38.066Z,4.67
2022-11-10T03:48:24.671Z,4.67
2022-11-10T03:51:10.962Z,4.68
2022-11-10T03:53:57.576Z,4.69
2022-11-10T03:56:44.285Z,4.70
2022-11-10T03:59:30.782Z,4.70
2022-11-10T04:02:17.510Z,4.70
2022-11-10T04:05:24.074Z,4.70
2022-11-10T04:08:34.326Z,4.70
2022-11-10T04:11:40.158Z,4.70
2022-11-10T04:14:45.334Z,4.70
2022-11-10T04:17:31.782Z,4.70
2022-11-10T04:20:18.250Z,4.70
2022-11-10T04:23:23.732Z,4.70
2022-11-10T04:26:29.735Z,4.70
2022-11-10T04:29:17.597Z,4.68
2022-11-10T04:32:04.404Z,4.68
2022-11-10T04:34:51.410Z,4.67
2022-11-10T04:37:38.003Z,4.66
2022-11-10T04:40:24.626Z,4.66
2022-11-10T04:43:10.816Z,4.66
2022-11-10T04:45:57.633Z,4.65
2022-11-10T04:48:43.720Z,4.64
2022-11-10T04:51:31.758Z,4.63
2022-11-10T04:54:18.438Z,4.63
2022-11-10T04:57:04.980Z,4.63
2022-11-10T04:59:51.795Z,4.63
2022-11-10T05:02:39.706Z,4.63
2022-11-10T05:05:27.046Z,4.63
2022-11-10T05:08:13.695Z,4.64
2022-11-10T05:11:00.368Z,4.64
2022-11-10T05:13:47.181Z,4.64
2022-11-10T05:16:33.685Z,4.63
2022-11-10T05:19:20.097Z,4.62
2022-11-10T05:22:07.799Z,4.62
2022-11-10T05:24:54.007Z,4.62
2022-11-10T05:27:40.834Z,4.63
2022-11-10T05:30:27.426Z,4.62
2022-11-10T05:33:14.237Z,4.63
2022-11-10T05:36:02.074Z,4.64
2022-11-10T05:38:48.897Z,4.66
2022-11-10T05:41:35.305Z,4.67
2022-11-10T05:44:21.635Z,4.70
2022-11-10T05:47:09.060Z,4.72
2022-11-10T05:49:55.514Z,4.75
2022-11-10T05:52:50.035Z,4.77
2022-11-10T05:55:37.337Z,4.79
2022-11-10T05:58:23.927Z,4.81
2022-11-10T06:01:10.644Z,4.84
2022-11-10T06:03:56.884Z,4.87
2022-11-10T06:06:43.436Z,4.89
2022-11-10T06:09:30.356Z,4.91
2022-11-10T06:12:16.974Z,4.93
2022-11-10T06:15:04.319Z,4.95
2022-11-10T06:17:51.294Z,4.96
2022-11-10T06:20:37.819Z,4.99
2022-11-10T06:23:25.075Z,5.00
2022-11-10T06:26:12.255Z,5.02
2022-11-10T06:28:58.561Z,5.03
2022-11-10T06:31:45.270Z,5.05
2022-11-10T06:34:31.689Z,5.07
2022-11-10T06:37:18.175Z,5.09
2022-11-10T06:40:09.621Z,5.12
2022-11-10T06:42:56.756Z,5.13
2022-11-10T06:45:43.210Z,5.14
2022-11-10T06:48:29.616Z,5.15
2022-11-10T06:51:16.227Z,5.16
2022-11-10T06:54:02.670Z,5.17
2022-11-10T06:56:49.360Z,5.20
2022-11-10T06:59:36.144Z,5.23
2022-11-10T07:02:22.865Z,5.26
2022-11-10T07:05:09.310Z,5.28
2022-11-10T07:07:55.755Z,5.30
2022-11-10T07:10:43.075Z,5.31
2022-11-10T07:13:29.885Z,5.33
2022-11-10T07:16:19.356Z,5.36
2022-11-10T07:19:10.080Z,5.39
2022-11-10T07:21:56.796Z,5.41
2022-11-10T07:24:43.633Z,5.44
2022-11-10T07:27:30.709Z,5.47
2022-11-10T07:30:17.833Z,5.50
2022-11-10T07:33:29.459Z,5.54
2022-11-10T07:36:16.661Z,5.57
2022-11-10T07:39:03.851Z,5.60
2022-11-10T07:41:52.667Z,5.64
2022-11-10T07:44:40.054Z,5.66
2022-11-10T07:47:26.751Z,5.70
2022-11-10T07:50:13.091Z,5.71
2022-11-10T07:53:20.403Z,5.75
2022-11-10T07:56:07.463Z,5.79
2022-11-10T07:58:53.974Z,5.82
2022-11-10T08:01:40.528Z,5.86
2022-11-10T08:04:26.874Z,5.90
2022-11-10T08:07:13.263Z,5.92
2022-11-10T08:09:59.753Z,5.94
2022-11-10T08:12:46.062Z,5.97
2022-11-10T08:15:33.192Z,5.99
2022-11-10T08:18:20.902Z,6.00
2022-11-10T08:21:07.439Z,6.03
2022-11-10T08:23:54.146Z,6.05
2022-11-10T08:26:40.643Z,6.08
2022-11-10T08:29:26.981Z,6.12
2022-11-10T08:32:13.774Z,6.16
2022-11-10T08:35:00.372Z,6.19
2022-11-10T08:37:47.179Z,6.23
2022-11-10T08:40:34.033Z,6.28
2022-11-10T08:43:20.789Z,6.32
2022-11-10T08:46:08.231Z,6.37
2022-11-10T08:48:54.622Z,6.41
2022-11-10T08:51:41.411Z,6.43
2022-11-10T08:54:27.926Z,6.47
2022-11-10T08:57:14.750Z,6.50
2022-11-10T09:00:01.572Z,6.54
2022-11-10T09:02:48.057Z,6.57
2022-11-10T09:05:36.418Z,6.59
2022-11-10T09:08:23.231Z,6.62
2022-11-10T09:11:10.006Z,6.66
2022-11-10T09:13:56.639Z,6.69
2022-11-10T09:16:43.475Z,6.71
2022-11-10T09:19:30.193Z,6.74
2022-11-10T09:22:17.075Z,6.78
2022-11-10T09:25:03.948Z,6.81
2022-11-10T09:27:50.669Z,6.82
2022-11-10T09:30:37.583Z,6.85
2022-11-10T09:33:24.383Z,6.89
2022-11-10T09:36:12.016Z,6.91
2022-11-10T09:38:58.726Z,6.95
2022-11-10T09:41:45.569Z,7.00
2022-11-10T09:44:46.839Z,7.03
2022-11-10T09:48:02.707Z,7.07
2022-11-10T09:50:55.227Z,7.11
2022-11-10T09:53:44.828Z,7.15
2022-11-10T09:56:33.464Z,7.18
2022-11-10T09:59:24.812Z,7.18
2022-11-10T10:02:13.024Z,7.22
2022-11-10T10:05:15.311Z,7.28
2022-11-10T10:08:20.142Z,7.33
2022-11-10T10:11:07.651Z,7.37
2022-11-10T10:14:17.797Z,7.42
2022-11-10T10:17:18.559Z,7.47
2022-11-10T10:20:12.866Z,7.53
2022-11-10T10:23:04.344Z,7.58
2022-11-10T10:25:54.824Z,7.61
2022-11-10T10:28:44.397Z,7.64
2022-11-10T10:31:34.611Z,7.67
2022-11-10T10:34:23.683Z,7.68
2022-11-10T10:37:23.718Z,7.67
2022-11-10T10:40:14.826Z,7.67
2022-11-10T10:43:01.547Z,7.66
2022-11-10T10:46:02.990Z,7.64
2022-11-10T10:49:27.296Z,7.63
2022-11-10T10:52:12.138Z,7.63
2022-11-10T10:55:05.923Z,7.62
2022-11-10T10:57:57.217Z,7.64
2022-11-10T11:00:45.168Z,7.65
2022-11-10T11:03:37.511Z,7.66
2022-11-10T11:06:27.507Z,7.67
2022-11-10T11:09:20.015Z,7.66
2022-11-10T11:12:08.377Z,7.65
2022-11-10T11:15:16.710Z,7.64
2022-11-10T11:18:10.487Z,7.63
2022-11-10T11:21:02.928Z,7.63
2022-11-10T11:23:58.037Z,7.65
2022-11-10T11:27:03.588Z,7.65
2022-11-10T11:29:59.512Z,7.65
2022-11-10T11:33:04.645Z,7.63
2022-11-10T11:36:14.882Z,7.62
2022-11-10T11:39:01.408Z,7.61
2022-11-10T11:41:59.188Z,7.60
2022-11-10T11:45:01.055Z,7.59
2022-11-10T11:48:06.303Z,7.59
2022-11-10T11:50:59.351Z,7.59
2022-11-10T11:53:52.206Z,7.59
2022-11-10T11:56:43.570Z,7.60
2022-11-10T11:59:33.497Z,7.61
2022-11-10T12:02:29.081Z,7.62
2022-11-10T12:05:36.827Z,7.62
2022-11-10T12:08:35.718Z,7.61
2022-11-10T12:11:22.422Z,7.60
2022-11-10T12:14:28.263Z,7.60
2022-11-10T12:17:33.319Z,7.61
2022-11-10T12:20:38.568Z,7.62
2022-11-10T12:23:34.697Z,7.61
2022-11-10T12:26:39.740Z,7.62
2022-11-10T12:29:36.355Z,7.62
2022-11-10T12:32:25.861Z,7.62
2022-11-10T12:35:14.301Z,7.65
2022-11-10T12:38:04.275Z,7.67
2022-11-10T12:40:53.145Z,7.69
2022-11-10T12:43:41.542Z,7.71
2022-11-10T12:46:28.508Z,7.74
2022-11-10T12:49:33.949Z,7.77
2022-11-10T12:52:40.943Z,7.79
2022-11-10T12:55:57.245Z,7.81
2022-11-10T12:58:43.849Z,7.81
2022-11-10T13:01:30.428Z,7.81
2022-11-10T13:04:18.945Z,7.81
2022-11-10T13:07:11.844Z,7.81
2022-11-10T13:10:15.692Z,7.82
2022-11-10T13:13:05.262Z,7.80
2022-11-10T13:15:54.181Z,7.79
2022-11-10T13:18:40.855Z,7.80
2022-11-10T13:21:46.462Z,7.81
2022-11-10T13:24:40.161Z,7.82
2022-11-10T13:27:36.014Z,7.84
2022-11-10T13:30:43.580Z,7.86
2022-11-10T13:33:31.605Z,7.88
2022-11-10T13:36:36.187Z,7.90
2022-11-10T13:39:23.161Z,7.91
2022-11-10T13:42:09.814Z,7.93
2022-11-10T13:45:16.950Z,7.95
2022-11-10T13:48:12.809Z,7.98
2022-11-10T13:51:18.324Z,7.98
2022-11-10T13:54:10.769Z,7.98
2022-11-10T13:56:57.358Z,7.98
2022-11-10T13:59:55.581Z,7.98
2022-11-10T14:02:45.174Z,7.97
2022-11-10T14:05:33.943Z,7.95
2022-11-10T14:08:23.802Z,7.95
2022-11-10T14:11:16.210Z,7.94
2022-11-10T14:14:11.106Z,7.92
2022-11-10T14:16:58.208Z,7.89
2022-11-10T14:19:45.706Z,7.87
2022-11-10T14:22:38.801Z,7.85
2022-11-10T14:25:28.385Z,7.83
2022-11-10T14:28:27.585Z,7.81
2022-11-10T14:31:26.587Z,7.80
2022-11-10T14:34:17.287Z,7.79
2022-11-10T14:37:04.397Z,7.78
2022-11-10T14:39:55.919Z,7.77
2022-11-10T14:42:44.780Z,7.76
2022-11-10T14:45:31.391Z,7.75
2022-11-10T14:48:20.387Z,7.74
2022-11-10T14:51:07.224Z,7.73
2022-11-10T14:53:54.487Z,7.71
2022-11-10T14:56:42.745Z,7.71
2022-11-10T14:59:29.759Z,7.70
2022-11-10T15:02:17.711Z,7.69
2022-11-10T15:05:05.412Z,7.68
2022-11-10T15:07:54.068Z,7.66
2022-11-10T15:10:40.567Z,7.64
2022-11-10T15:13:27.037Z,7.61
2022-11-10T15:16:22.593Z,7.59
2022-11-10T15:19:23.124Z,7.58
2022-11-10T15:22:15.986Z,7.56
2022-11-10T15:25:22.777Z,7.55
2022-11-10T15:28:12.341Z,7.52
2022-11-10T15:31:00.850Z,7.52
2022-11-10T15:33:49.454Z,7.52
2022-11-10T15:36:39.736Z,7.51
2022-11-10T15:39:27.455Z,7.51
2022-11-10T15:42:16.329Z,7.50
2022-11-10T15:45:02.527Z,7.50
2022-11-10T15:47:49.535Z,7.50
2022-11-10T15:50:36.549Z,7.50
2022-11-10T15:53:28.591Z,7.49
2022-11-10T15:56:20.208Z,7.49
2022-11-10T15:59:06.916Z,7.48
2022-11-10T16:01:53.704Z,7.47
2022-11-10T16:04:40.132Z,7.45
2022-11-10T16:07:26.759Z,7.44
2022-11-10T16:10:13.452Z,7.44
2022-11-10T16:12:59.962Z,7.43
2022-11-10T16:15:46.865Z,7.42
2022-11-10T16:18:33.184Z,7.40
2022-11-10T16:21:21.621Z,7.39
2022-11-10T16:24:08.438Z,7.38
2022-11-10T16:26:55.140Z,7.38
2022-11-10T16:29:42.251Z,7.36
2022-11-10T16:32:28.808Z,7.33
2022-11-10T16:35:16.395Z,7.32
2022-11-10T16:38:03.300Z,7.31
2022-11-10T16:40:54.655Z,7.31
2022-11-10T16:43:41.333Z,7.29
2022-11-10T16:46:30.799Z,7.27
2022-11-10T16:49:28.446Z,7.24
2022-11-10T16:52:15.862Z,7.21
2022-11-10T16:55:02.446Z,7.19
2022-11-10T16:57:49.439Z,7.15
2022-11-10T17:00:36.250Z,7.10
2022-11-10T17:03:58.670Z,7.05
2022-11-10T17:06:45.452Z,6.99
2022-11-10T17:09:31.716Z,6.93
2022-11-10T17:12:18.315Z,6.85
2022-11-10T17:15:05.519Z,6.78
2022-11-10T17:17:54.682Z,6.73
2022-11-10T17:20:42.590Z,6.68
2022-11-10T17:23:29.432Z,6.64
2022-11-10T17:26:18.597Z,6.59
2022-11-10T17:29:05.300Z,6.56
2022-11-10T17:31:53.040Z,6.51
2022-11-10T17:34:39.533Z,6.47
2022-11-10T17:37:26.518Z,6.43
2022-11-10T17:40:20.795Z,6.39
2022-11-10T17:43:30.900Z,6.35
2022-11-10T17:46:17.295Z,6.30
2022-11-10T17:49:04.215Z,6.25
2022-11-10T17:51:51.539Z,6.20
2022-11-10T17:54:38.526Z,6.15
2022-11-10T17:57:25.892Z,6.11
2022-11-10T18:00:12.896Z,6.07
2022-11-10T18:02:59.151Z,6.03
2022-11-10T18:05:45.699Z,6.00
2022-11-10T18:08:32.401Z,5.97
2022-11-10T18:11:21.624Z,5.94
2022-11-10T18:14:09.512Z,5.90
2022-11-10T18:16:56.936Z,5.87
2022-11-10T18:19:43.630Z,5.84
2022-11-10T18:22:33.529Z,5.83
2022-11-10T18:25:20.034Z,5.82
2022-11-10T18:28:07.713Z,5.82
2022-11-10T18:30:56.006Z,5.81
2022-11-10T18:33:42.612Z,5.81
2022-11-10T18:36:28.707Z,5.82
2022-11-10T18:39:15.321Z,5.83
2022-11-10T18:42:02.123Z,5.84
2022-11-10T18:44:51.500Z,5.86
2022-11-10T18:47:37.853Z,5.89
2022-11-10T18:50:25.639Z,5.92
2022-11-10T18:53:12.031Z,5.95
2022-11-10T18:55:58.644Z,5.98
2022-11-10T18:58:45.805Z,6.01
2022-11-10T19:01:33.327Z,6.05
2022-11-10T19:04:20.919Z,6.08
2022-11-10T19:07:09.239Z,6.12
2022-11-10T19:09:55.873Z,6.16
2022-11-10T19:12:43.747Z,6.19
2022-11-10T19:15:33.429Z,6.24
2022-11-10T19:18:19.994Z,6.28
2022-11-10T19:21:14.233Z,6.31
2022-11-10T19:24:01.187Z,6.37
2022-11-10T19:26:51.591Z,6.42
2022-11-10T19:29:40.052Z,6.45
2022-11-10T19:32:26.515Z,6.49
2022-11-10T19:35:13.652Z,6.54
2022-11-10T19:37:59.863Z,6.59
2022-11-10T19:40:46.606Z,6.64
2022-11-10T19:43:33.583Z,6.68
2022-11-10T19:46:21.919Z,6.72
2022-11-10T19:49:08.628Z,6.76
2022-11-10T19:51:55.657Z,6.80
2022-11-10T19:54:43.603Z,6.84
2022-11-10T19:57:30.011Z,6.88
2022-11-10T20:00:17.105Z,6.92
2022-11-10T20:03:03.415Z,6.97
2022-11-10T20:05:59.184Z,7.01
2022-11-10T20:08:47.891Z,7.05
2022-11-10T20:11:35.520Z,7.08
2022-11-10T20:14:24.064Z,7.12
2022-11-10T20:17:11.837Z,7.16
2022-11-10T20:19:58.815Z,7.19
2022-11-10T20:22:45.533Z,7.22
2022-11-10T20:25:33.225Z,7.25
2022-11-10T20:28:19.993Z,7.28
2022-11-10T20:31:10.635Z,7.31
2022-11-10T20:33:58.809Z,7.33
2022-11-10T20:36:46.345Z,7.36
2022-11-10T20:39:32.841Z,7.40
2022-11-10T20:42:20.077Z,7.43
2022-11-10T20:45:10.295Z,7.46
2022-11-10T20:47:57.535Z,7.50
2022-11-10T20:50:43.727Z,7.55
2022-11-10T20:53:30.095Z,7.59
2022-11-10T20:56:16.885Z,7.66
2022-11-10T20:59:04.463Z,7.73
2022-11-10T21:01:51.981Z,7.78
2022-11-10T21:04:42.812Z,7.83
2022-11-10T21:07:29.981Z,7.89
2022-11-10T21:10:16.529Z,7.94
2022-11-10T21:13:03.185Z,7.98
2022-11-10T21:15:54.299Z,8.00
2022-11-10T21:18:43.173Z,8.02
2022-11-10T21:21:35.145Z,8.05
2022-11-10T21:24:21.792Z,8.07
2022-11-10T21:27:10.250Z,8.09
2022-11-10T21:29:56.547Z,8.10
2022-11-10T21:32:43.264Z,8.13
2022-11-10T21:35:32.875Z,8.14
2022-11-10T21:38:23.197Z,8.15
2022-11-10T21:41:10.105Z,8.15
2022-11-10T21:43:58.592Z,8.16
2022-11-10T21:46:45.843Z,8.16
2022-11-10T21:49:34.663Z,8.16
2022-11-10T21:52:21.270Z,8.17
2022-11-10T21:55:08.183Z,8.16
2022-11-10T21:57:58.092Z,8.15
2022-11-10T22:00:44.674Z,8.14
2022-11-10T22:03:31.897Z,8.14
2022-11-10T22:06:18.861Z,8.13
2022-11-10T22:09:05.212Z,8.10
2022-11-10T22:12:10.042Z,8.12
2022-11-10T22:15:17.027Z,8.12
2022-11-10T22:18:22.594Z,8.12
2022-11-10T22:21:09.286Z,8.12
2022-11-10T22:24:14.441Z,8.12
2022-11-10T22:27:04.669Z,8.14
2022-11-10T22:29:51.208Z,8.17
2022-11-10T22:32:37.784Z,8.18
2022-11-10T22:35:43.102Z,8.19
2022-11-10T22:38:30.561Z,8.20
2022-11-10T22:41:36.304Z,8.21
2022-11-10T22:44:25.200Z,8.22
2022-11-10T22:47:12.078Z,8.22
2022-11-10T22:49:58.587Z,8.22
2022-11-10T22:52:44.882Z,8.22
2022-11-10T22:55:31.903Z,8.22
2022-11-10T22:58:18.811Z,8.21
2022-11-10T23:01:09.566Z,8.22
2022-11-10T23:03:59.630Z,8.22
2022-11-10T23:06:46.220Z,8.22
2022-11-10T23:09:34.970Z,8.25
2022-11-10T23:12:21.467Z,8.28
2022-11-10T23:15:08.496Z,8.33
2022-11-10T23:17:55.218Z,8.36
2022-11-10T23:20:41.597Z,8.39
2022-11-10T23:23:29.132Z,8.43
2022-11-10T23:26:17.671Z,8.46
2022-11-10T23:29:04.331Z,8.49
2022-11-10T23:31:50.991Z,8.53
2022-11-10T23:34:37.402Z,8.55
2022-11-10T23:37:24.213Z,8.58
2022-11-10T23:40:11.446Z,8.60
2022-11-10T23:42:58.063Z,8.61
2022-11-10T23:46:05.803Z,8.62
2022-11-10T23:48:50.849Z,8.63
2022-11-10T23:51:37.196Z,8.65
2022-11-10T23:54:23.598Z,8.66
2022-11-10T23:57:09.904Z,8.67
2022-11-10T23:59:56.094Z,8.68
